sensor_id;sensor_type;location;lat;lon;timestamp;P1;durP1;ratioP1;P2;durP2;ratioP2
41167;SDS011;26906;45.658;9.272;2023-02-11T08:19:38;39.15;;;22.85;;
41167;SDS011;26906;45.658;9.272;2023-02-11T08:22:04;39.75;;;22.08;;
41167;SDS011;26906;45.658;9.272;2023-02-11T08:24:31;39.95;;;22.52;;
41167;SDS011;26906;45.658;9.272;2023-02-11T08:26:56;43.88;;;23.45;;
41167;SDS011;26906;45.658;9.272;2023-02-11T08:29:25;43.80;;;23.80;;
41167;SDS011;26906;45.658;9.272;2023-02-11T08:31:51;40.22;;;24.73;;
41167;SDS011;26906;45.658;9.272;2023-02-11T08:34:20;46.95;;;27.58;;
41167;SDS011;26906;45.658;9.272;2023-02-11T08:36:47;53.78;;;27.90;;
41167;SDS011;26906;45.658;9.272;2023-02-11T08:39:14;48.45;;;27.85;;
41167;SDS011;26906;45.658;9.272;2023-02-11T08:41:44;51.42;;;27.52;;
41167;SDS011;26906;45.658;9.272;2023-02-11T08:44:14;50.80;;;28.67;;
41167;SDS011;26906;45.658;9.272;2023-02-11T08:46:40;48.55;;;25.45;;
41167;SDS011;26906;45.658;9.272;2023-02-11T08:49:06;48.30;;;27.40;;
41167;SDS011;26906;45.658;9.272;2023-02-11T08:51:31;45.03;;;27.65;;
41167;SDS011;26906;45.658;9.272;2023-02-11T08:53:57;50.05;;;26.73;;
41167;SDS011;26906;45.658;9.272;2023-02-11T08:56:23;45.58;;;26.63;;
41167;SDS011;26906;45.658;9.272;2023-02-11T08:58:51;44.83;;;25.50;;
41167;SDS011;26906;45.658;9.272;2023-02-11T09:01:21;40.80;;;24.27;;
41167;SDS011;26906;45.658;9.272;2023-02-11T09:03:49;43.35;;;25.23;;
41167;SDS011;26906;45.658;9.272;2023-02-11T09:06:16;39.10;;;24.45;;
41167;SDS011;26906;45.658;9.272;2023-02-11T09:08:43;46.92;;;26.58;;
41167;SDS011;26906;45.658;9.272;2023-02-11T09:11:12;41.80;;;23.15;;
41167;SDS011;26906;45.658;9.272;2023-02-11T09:13:39;46.50;;;24.67;;
41167;SDS011;26906;45.658;9.272;2023-02-11T09:16:06;37.88;;;22.58;;
41167;SDS011;26906;45.658;9.272;2023-02-11T09:18:32;37.95;;;22.98;;
41167;SDS011;26906;45.658;9.272;2023-02-11T09:21:05;36.78;;;21.50;;
41167;SDS011;26906;45.658;9.272;2023-02-11T09:28:57;38.67;;;22.15;;
41167;SDS011;26906;45.658;9.272;2023-02-11T09:31:25;39.63;;;22.90;;
41167;SDS011;26906;45.658;9.272;2023-02-11T09:33:58;42.25;;;24.42;;
41167;SDS011;26906;45.658;9.272;2023-02-11T09:36:26;39.40;;;23.30;;
41167;SDS011;26906;45.658;9.272;2023-02-11T09:38:54;36.22;;;22.88;;
41167;SDS011;26906;45.658;9.272;2023-02-11T09:43:58;42.55;;;23.60;;
41167;SDS011;26906;45.658;9.272;2023-02-11T09:46:34;34.88;;;22.10;;
41167;SDS011;26906;45.658;9.272;2023-02-11T09:49:06;45.20;;;23.08;;
41167;SDS011;26906;45.658;9.272;2023-02-11T09:51:41;40.90;;;21.50;;
41167;SDS011;26906;45.658;9.272;2023-02-11T09:54:20;37.72;;;20.52;;
41167;SDS011;26906;45.658;9.272;2023-02-11T09:56:53;38.67;;;21.05;;
41167;SDS011;26906;45.658;9.272;2023-02-11T09:59:19;33.10;;;19.92;;
41167;SDS011;26906;45.658;9.272;2023-02-11T10:01:49;32.22;;;19.35;;
41167;SDS011;26906;45.658;9.272;2023-02-11T10:07:06;42.30;;;18.77;;
41167;SDS011;26906;45.658;9.272;2023-02-11T10:09:46;31.75;;;17.40;;
41167;SDS011;26906;45.658;9.272;2023-02-11T10:12:23;27.90;;;16.63;;
41167;SDS011;26906;45.658;9.272;2023-02-11T10:15:22;28.48;;;15.70;;
41167;SDS011;26906;45.658;9.272;2023-02-11T10:18:22;25.15;;;16.52;;
41167;SDS011;26906;45.658;9.272;2023-02-11T10:23:47;28.13;;;17.83;;
41167;SDS011;26906;45.658;9.272;2023-02-11T10:26:19;24.05;;;15.65;;
41167;SDS011;26906;45.658;9.272;2023-02-11T10:28:46;28.30;;;16.38;;
41167;SDS011;26906;45.658;9.272;2023-02-11T10:31:16;28.05;;;17.48;;
41167;SDS011;26906;45.658;9.272;2023-02-11T10:33:57;24.08;;;15.40;;
41167;SDS011;26906;45.658;9.272;2023-02-11T10:36:32;22.90;;;14.68;;
41167;SDS011;26906;45.658;9.272;2023-02-11T10:39:10;25.73;;;17.52;;
41167;SDS011;26906;45.658;9.272;2023-02-11T10:41:58;31.10;;;17.25;;
41167;SDS011;26906;45.658;9.272;2023-02-11T10:46:56;25.35;;;16.10;;
41167;SDS011;26906;45.658;9.272;2023-02-11T10:49:39;23.77;;;15.95;;
41167;SDS011;26906;45.658;9.272;2023-02-11T10:52:20;31.67;;;17.90;;
41167;SDS011;26906;45.658;9.272;2023-02-11T10:55:13;29.48;;;16.90;;
41167;SDS011;26906;45.658;9.272;2023-02-11T10:57:58;28.08;;;18.80;;
41167;SDS011;26906;45.658;9.272;2023-02-11T11:00:48;31.73;;;19.48;;
41167;SDS011;26906;45.658;9.272;2023-02-11T11:03:18;35.85;;;20.60;;
41167;SDS011;26906;45.658;9.272;2023-02-11T11:08:20;30.95;;;19.90;;
41167;SDS011;26906;45.658;9.272;2023-02-11T11:10:48;31.75;;;20.17;;
41167;SDS011;26906;45.658;9.272;2023-02-11T11:13:32;31.48;;;19.08;;
41167;SDS011;26906;45.658;9.272;2023-02-11T11:16:06;29.00;;;19.05;;
41167;SDS011;26906;45.658;9.272;2023-02-11T11:18:38;39.65;;;22.38;;
41167;SDS011;26906;45.658;9.272;2023-02-11T11:21:09;37.95;;;23.40;;
41167;SDS011;26906;45.658;9.272;2023-02-11T11:24:05;37.45;;;23.85;;
41167;SDS011;26906;45.658;9.272;2023-02-11T11:26:54;64.55;;;29.35;;
41167;SDS011;26906;45.658;9.272;2023-02-11T11:32:15;36.80;;;22.15;;
41167;SDS011;26906;45.658;9.272;2023-02-11T11:34:49;37.08;;;21.83;;
41167;SDS011;26906;45.658;9.272;2023-02-11T11:37:33;36.65;;;22.30;;
41167;SDS011;26906;45.658;9.272;2023-02-11T11:40:20;36.50;;;22.70;;
41167;SDS011;26906;45.658;9.272;2023-02-11T11:43:30;33.72;;;22.13;;
41167;SDS011;26906;45.658;9.272;2023-02-11T11:45:37;33.65;;;21.70;;
41167;SDS011;26906;45.658;9.272;2023-02-11T11:48:05;37.10;;;23.15;;
41167;SDS011;26906;45.658;9.272;2023-02-11T11:50:52;32.35;;;21.52;;
41167;SDS011;26906;45.658;9.272;2023-02-11T11:53:44;32.53;;;21.88;;
41167;SDS011;26906;45.658;9.272;2023-02-11T11:56:18;37.17;;;22.98;;
41167;SDS011;26906;45.658;9.272;2023-02-11T11:58:52;40.97;;;22.70;;
41167;SDS011;26906;45.658;9.272;2023-02-11T12:10:22;33.92;;;22.40;;
41167;SDS011;26906;45.658;9.272;2023-02-11T12:26:35;41.50;;;24.10;;
41167;SDS011;26906;45.658;9.272;2023-02-11T12:50:56;35.13;;;23.73;;
41167;SDS011;26906;45.658;9.272;2023-02-11T12:56:09;36.17;;;23.58;;
41167;SDS011;26906;45.658;9.272;2023-02-11T12:58:45;37.55;;;24.17;;
41167;SDS011;26906;45.658;9.272;2023-02-11T13:01:15;35.65;;;22.42;;
41167;SDS011;26906;45.658;9.272;2023-02-11T13:06:56;34.00;;;21.58;;
41167;SDS011;26906;45.658;9.272;2023-02-11T13:09:31;37.30;;;22.58;;
41167;SDS011;26906;45.658;9.272;2023-02-11T13:12:04;38.15;;;22.52;;
41167;SDS011;26906;45.658;9.272;2023-02-11T13:14:50;42.67;;;21.85;;
41167;SDS011;26906;45.658;9.272;2023-02-11T13:17:28;36.88;;;22.40;;
41167;SDS011;26906;45.658;9.272;2023-02-11T13:20:24;37.33;;;22.02;;
41167;SDS011;26906;45.658;9.272;2023-02-11T13:28:56;38.05;;;21.02;;
41167;SDS011;26906;45.658;9.272;2023-02-11T13:31:53;33.63;;;19.48;;
41167;SDS011;26906;45.658;9.272;2023-02-11T13:34:24;31.83;;;19.70;;
41167;SDS011;26906;45.658;9.272;2023-02-11T13:42:49;30.73;;;19.05;;
41167;SDS011;26906;45.658;9.272;2023-02-11T13:48:21;36.30;;;20.95;;
41167;SDS011;26906;45.658;9.272;2023-02-11T13:50:58;36.65;;;18.75;;
41167;SDS011;26906;45.658;9.272;2023-02-11T13:53:29;36.28;;;21.67;;
41167;SDS011;26906;45.658;9.272;2023-02-11T13:58:57;29.58;;;18.67;;
41167;SDS011;26906;45.658;9.272;2023-02-11T14:02:19;31.25;;;18.50;;
41167;SDS011;26906;45.658;9.272;2023-02-11T14:04:36;26.70;;;18.35;;
41167;SDS011;26906;45.658;9.272;2023-02-11T14:07:30;30.95;;;19.83;;
41167;SDS011;26906;45.658;9.272;2023-02-11T14:16:10;27.55;;;17.95;;
41167;SDS011;26906;45.658;9.272;2023-02-11T14:21:10;32.17;;;17.65;;
41167;SDS011;26906;45.658;9.272;2023-02-11T14:23:40;31.05;;;17.58;;
41167;SDS011;26906;45.658;9.272;2023-02-11T14:34:59;24.45;;;15.70;;
41167;SDS011;26906;45.658;9.272;2023-02-11T14:42:53;19.52;;;14.18;;
41167;SDS011;26906;45.658;9.272;2023-02-11T14:45:26;20.90;;;14.18;;
41167;SDS011;26906;45.658;9.272;2023-02-11T14:48:06;24.10;;;13.98;;
41167;SDS011;26906;45.658;9.272;2023-02-11T14:50:53;23.63;;;15.38;;
41167;SDS011;26906;45.658;9.272;2023-02-11T14:53:24;26.10;;;14.48;;
41167;SDS011;26906;45.658;9.272;2023-02-11T14:55:53;22.25;;;14.43;;
41167;SDS011;26906;45.658;9.272;2023-02-11T14:58:24;21.85;;;14.65;;
41167;SDS011;26906;45.658;9.272;2023-02-11T15:01:45;25.10;;;14.60;;
41167;SDS011;26906;45.658;9.272;2023-02-11T15:04:23;25.33;;;15.05;;
41167;SDS011;26906;45.658;9.272;2023-02-11T15:07:02;20.13;;;13.83;;
41167;SDS011;26906;45.658;9.272;2023-02-11T15:09:45;23.17;;;14.95;;
41167;SDS011;26906;45.658;9.272;2023-02-11T15:12:24;22.45;;;14.40;;
41167;SDS011;26906;45.658;9.272;2023-02-11T15:14:52;24.92;;;15.02;;
41167;SDS011;26906;45.658;9.272;2023-02-11T15:17:23;22.42;;;14.40;;
41167;SDS011;26906;45.658;9.272;2023-02-11T15:19:53;21.83;;;14.07;;
41167;SDS011;26906;45.658;9.272;2023-02-11T15:22:25;22.85;;;14.05;;
41167;SDS011;26906;45.658;9.272;2023-02-11T15:27:39;26.52;;;14.00;;
41167;SDS011;26906;45.658;9.272;2023-02-11T15:32:46;23.15;;;13.95;;
41167;SDS011;26906;45.658;9.272;2023-02-11T15:35:17;21.02;;;13.88;;
41167;SDS011;26906;45.658;9.272;2023-02-11T15:37:43;21.95;;;13.65;;
41167;SDS011;26906;45.658;9.272;2023-02-11T15:40:15;20.52;;;13.52;;
41167;SDS011;26906;45.658;9.272;2023-02-11T15:42:54;24.40;;;13.57;;
41167;SDS011;26906;45.658;9.272;2023-02-11T15:45:39;22.25;;;13.18;;
41167;SDS011;26906;45.658;9.272;2023-02-11T15:48:20;23.15;;;14.00;;
41167;SDS011;26906;45.658;9.272;2023-02-11T15:50:54;22.58;;;14.32;;
41167;SDS011;26906;45.658;9.272;2023-02-11T15:59:08;23.58;;;14.07;;
41167;SDS011;26906;45.658;9.272;2023-02-11T16:01:39;23.85;;;15.10;;
41167;SDS011;26906;45.658;9.272;2023-02-11T16:04:06;22.85;;;14.15;;
41167;SDS011;26906;45.658;9.272;2023-02-11T16:06:41;25.90;;;15.05;;
41167;SDS011;26906;45.658;9.272;2023-02-11T16:11:52;24.60;;;16.05;;
41167;SDS011;26906;45.658;9.272;2023-02-11T16:14:22;23.98;;;14.82;;
41167;SDS011;26906;45.658;9.272;2023-02-11T16:16:51;24.33;;;15.18;;
41167;SDS011;26906;45.658;9.272;2023-02-11T16:19:44;27.05;;;15.65;;
41167;SDS011;26906;45.658;9.272;2023-02-11T16:22:16;23.73;;;15.57;;
41167;SDS011;26906;45.658;9.272;2023-02-11T16:24:45;26.95;;;18.48;;
41167;SDS011;26906;45.658;9.272;2023-02-11T16:27:23;32.22;;;19.30;;
41167;SDS011;26906;45.658;9.272;2023-02-11T16:29:56;28.67;;;18.45;;
41167;SDS011;26906;45.658;9.272;2023-02-11T16:32:23;25.10;;;16.30;;
41167;SDS011;26906;45.658;9.272;2023-02-11T16:34:52;32.25;;;16.98;;
41167;SDS011;26906;45.658;9.272;2023-02-11T16:37:19;27.50;;;15.93;;
41167;SDS011;26906;45.658;9.272;2023-02-11T16:39:45;24.20;;;15.98;;
41167;SDS011;26906;45.658;9.272;2023-02-11T16:42:11;26.08;;;16.70;;
41167;SDS011;26906;45.658;9.272;2023-02-11T16:44:37;25.63;;;16.50;;
41167;SDS011;26906;45.658;9.272;2023-02-11T16:47:03;32.78;;;16.92;;
41167;SDS011;26906;45.658;9.272;2023-02-11T16:49:42;27.85;;;17.45;;
41167;SDS011;26906;45.658;9.272;2023-02-11T16:52:11;26.42;;;16.55;;
41167;SDS011;26906;45.658;9.272;2023-02-11T16:54:38;39.42;;;17.15;;
41167;SDS011;26906;45.658;9.272;2023-02-11T16:57:14;34.58;;;16.20;;
41167;SDS011;26906;45.658;9.272;2023-02-11T16:59:50;30.40;;;16.27;;
41167;SDS011;26906;45.658;9.272;2023-02-11T17:02:24;30.42;;;18.15;;
41167;SDS011;26906;45.658;9.272;2023-02-11T17:04:54;29.88;;;17.60;;
41167;SDS011;26906;45.658;9.272;2023-02-11T17:07:21;32.65;;;17.75;;
41167;SDS011;26906;45.658;9.272;2023-02-11T17:09:47;28.15;;;17.23;;
41167;SDS011;26906;45.658;9.272;2023-02-11T17:12:14;30.23;;;17.67;;
41167;SDS011;26906;45.658;9.272;2023-02-11T17:14:42;28.88;;;17.40;;
41167;SDS011;26906;45.658;9.272;2023-02-11T17:17:08;31.15;;;20.08;;
41167;SDS011;26906;45.658;9.272;2023-02-11T17:19:36;31.50;;;19.33;;
41167;SDS011;26906;45.658;9.272;2023-02-11T17:22:04;34.08;;;19.52;;
41167;SDS011;26906;45.658;9.272;2023-02-11T17:24:39;29.85;;;20.02;;
41167;SDS011;26906;45.658;9.272;2023-02-11T17:27:05;40.72;;;21.63;;
41167;SDS011;26906;45.658;9.272;2023-02-11T17:29:31;35.83;;;21.27;;
41167;SDS011;26906;45.658;9.272;2023-02-11T17:31:57;35.50;;;21.20;;
41167;SDS011;26906;45.658;9.272;2023-02-11T17:34:23;36.85;;;21.58;;
41167;SDS011;26906;45.658;9.272;2023-02-11T17:36:48;35.80;;;21.20;;
41167;SDS011;26906;45.658;9.272;2023-02-11T17:39:14;35.30;;;21.30;;
41167;SDS011;26906;45.658;9.272;2023-02-11T17:41:40;50.83;;;25.77;;
41167;SDS011;26906;45.658;9.272;2023-02-11T17:44:06;42.75;;;22.42;;
41167;SDS011;26906;45.658;9.272;2023-02-11T17:46:33;46.28;;;25.83;;
41167;SDS011;26906;45.658;9.272;2023-02-11T17:49:00;39.53;;;24.10;;
41167;SDS011;26906;45.658;9.272;2023-02-11T17:51:30;41.35;;;28.17;;
41167;SDS011;26906;45.658;9.272;2023-02-11T17:54:03;47.03;;;26.70;;
41167;SDS011;26906;45.658;9.272;2023-02-11T17:56:31;38.22;;;22.52;;
41167;SDS011;26906;45.658;9.272;2023-02-11T17:58:59;42.95;;;24.27;;
41167;SDS011;26906;45.658;9.272;2023-02-11T18:01:26;54.42;;;25.58;;
41167;SDS011;26906;45.658;9.272;2023-02-11T18:03:56;107.53;;;47.75;;
41167;SDS011;26906;45.658;9.272;2023-02-11T18:06:22;64.78;;;35.75;;
41167;SDS011;26906;45.658;9.272;2023-02-11T18:08:48;52.25;;;29.73;;
41167;SDS011;26906;45.658;9.272;2023-02-11T18:11:14;61.88;;;31.17;;
41167;SDS011;26906;45.658;9.272;2023-02-11T18:13:43;56.38;;;31.27;;
41167;SDS011;26906;45.658;9.272;2023-02-11T18:16:09;51.58;;;31.63;;
41167;SDS011;26906;45.658;9.272;2023-02-11T18:18:41;45.92;;;28.17;;
41167;SDS011;26906;45.658;9.272;2023-02-11T18:21:07;48.03;;;29.25;;
41167;SDS011;26906;45.658;9.272;2023-02-11T18:23:38;49.40;;;28.42;;
41167;SDS011;26906;45.658;9.272;2023-02-11T18:26:07;50.88;;;29.58;;
41167;SDS011;26906;45.658;9.272;2023-02-11T18:28:34;56.30;;;30.35;;
41167;SDS011;26906;45.658;9.272;2023-02-11T18:31:00;50.97;;;29.95;;
41167;SDS011;26906;45.658;9.272;2023-02-11T18:33:26;57.50;;;31.80;;
41167;SDS011;26906;45.658;9.272;2023-02-11T18:35:55;62.05;;;29.35;;
41167;SDS011;26906;45.658;9.272;2023-02-11T18:38:35;105.28;;;53.63;;
41167;SDS011;26906;45.658;9.272;2023-02-11T18:41:00;92.07;;;48.95;;
41167;SDS011;26906;45.658;9.272;2023-02-11T18:43:27;78.15;;;41.78;;
41167;SDS011;26906;45.658;9.272;2023-02-11T18:45:57;142.88;;;77.40;;
41167;SDS011;26906;45.658;9.272;2023-02-11T18:48:23;119.00;;;65.45;;
41167;SDS011;26906;45.658;9.272;2023-02-11T18:50:53;55.63;;;33.47;;
41167;SDS011;26906;45.658;9.272;2023-02-11T18:53:21;56.47;;;31.98;;
41167;SDS011;26906;45.658;9.272;2023-02-11T18:55:47;53.70;;;28.77;;
41167;SDS011;26906;45.658;9.272;2023-02-11T18:58:14;56.35;;;31.85;;
41167;SDS011;26906;45.658;9.272;2023-02-11T19:00:40;60.70;;;37.38;;
41167;SDS011;26906;45.658;9.272;2023-02-11T19:03:08;55.97;;;30.45;;
41167;SDS011;26906;45.658;9.272;2023-02-11T19:05:44;80.13;;;46.55;;
41167;SDS011;26906;45.658;9.272;2023-02-11T19:08:13;57.00;;;33.75;;
41167;SDS011;26906;45.658;9.272;2023-02-11T19:10:43;56.65;;;31.40;;
41167;SDS011;26906;45.658;9.272;2023-02-11T19:13:11;43.45;;;26.63;;
41167;SDS011;26906;45.658;9.272;2023-02-11T19:15:40;46.00;;;27.92;;
41167;SDS011;26906;45.658;9.272;2023-02-11T19:18:07;44.85;;;27.42;;
41167;SDS011;26906;45.658;9.272;2023-02-11T19:20:33;54.38;;;28.92;;
41167;SDS011;26906;45.658;9.272;2023-02-11T19:23:03;53.97;;;29.80;;
41167;SDS011;26906;45.658;9.272;2023-02-11T19:25:31;45.72;;;27.17;;
41167;SDS011;26906;45.658;9.272;2023-02-11T19:27:57;46.92;;;28.17;;
41167;SDS011;26906;45.658;9.272;2023-02-11T19:30:23;44.60;;;27.77;;
41167;SDS011;26906;45.658;9.272;2023-02-11T19:32:48;49.15;;;28.13;;
41167;SDS011;26906;45.658;9.272;2023-02-11T19:35:17;55.17;;;32.42;;
41167;SDS011;26906;45.658;9.272;2023-02-11T19:37:45;48.08;;;28.08;;
41167;SDS011;26906;45.658;9.272;2023-02-11T19:40:18;47.65;;;28.75;;
41167;SDS011;26906;45.658;9.272;2023-02-11T19:42:45;51.17;;;28.75;;
41167;SDS011;26906;45.658;9.272;2023-02-11T19:45:11;53.28;;;28.52;;
41167;SDS011;26906;45.658;9.272;2023-02-11T19:47:38;46.60;;;27.35;;
41167;SDS011;26906;45.658;9.272;2023-02-11T19:50:04;44.95;;;28.60;;
41167;SDS011;26906;45.658;9.272;2023-02-11T19:52:30;50.05;;;29.65;;
41167;SDS011;26906;45.658;9.272;2023-02-11T19:54:56;53.35;;;34.08;;
41167;SDS011;26906;45.658;9.272;2023-02-11T19:57:26;56.83;;;33.53;;
41167;SDS011;26906;45.658;9.272;2023-02-11T19:59:52;55.03;;;31.60;;
41167;SDS011;26906;45.658;9.272;2023-02-11T20:02:19;59.15;;;32.15;;
41167;SDS011;26906;45.658;9.272;2023-02-11T20:04:45;55.97;;;31.98;;
41167;SDS011;26906;45.658;9.272;2023-02-11T20:07:12;54.05;;;31.90;;
41167;SDS011;26906;45.658;9.272;2023-02-11T20:09:40;59.47;;;36.15;;
41167;SDS011;26906;45.658;9.272;2023-02-11T20:12:07;53.08;;;32.90;;
41167;SDS011;26906;45.658;9.272;2023-02-11T20:14:36;51.40;;;30.38;;
41167;SDS011;26906;45.658;9.272;2023-02-11T20:17:02;51.40;;;31.17;;
41167;SDS011;26906;45.658;9.272;2023-02-11T20:19:28;56.97;;;33.72;;
41167;SDS011;26906;45.658;9.272;2023-02-11T20:21:54;52.35;;;31.40;;
41167;SDS011;26906;45.658;9.272;2023-02-11T20:24:21;51.20;;;33.03;;
41167;SDS011;26906;45.658;9.272;2023-02-11T20:26:49;52.10;;;30.73;;
41167;SDS011;26906;45.658;9.272;2023-02-11T20:29:19;46.90;;;29.67;;
41167;SDS011;26906;45.658;9.272;2023-02-11T20:31:46;52.65;;;31.38;;
41167;SDS011;26906;45.658;9.272;2023-02-11T20:34:13;48.80;;;31.27;;
41167;SDS011;26906;45.658;9.272;2023-02-11T20:36:44;51.65;;;29.27;;
41167;SDS011;26906;45.658;9.272;2023-02-11T20:39:16;49.40;;;30.27;;
41167;SDS011;26906;45.658;9.272;2023-02-11T20:41:42;55.97;;;32.17;;
41167;SDS011;26906;45.658;9.272;2023-02-11T20:44:10;50.50;;;31.48;;
41167;SDS011;26906;45.658;9.272;2023-02-11T20:46:36;48.65;;;29.50;;
41167;SDS011;26906;45.658;9.272;2023-02-11T20:49:05;47.47;;;28.70;;
41167;SDS011;26906;45.658;9.272;2023-02-11T20:51:32;50.15;;;29.02;;
41167;SDS011;26906;45.658;9.272;2023-02-11T20:53:58;42.97;;;26.35;;
41167;SDS011;26906;45.658;9.272;2023-02-11T20:56:34;48.72;;;29.95;;
41167;SDS011;26906;45.658;9.272;2023-02-11T20:59:03;65.97;;;35.67;;
41167;SDS011;26906;45.658;9.272;2023-02-11T21:01:31;80.32;;;43.20;;
41167;SDS011;26906;45.658;9.272;2023-02-11T21:03:58;68.85;;;37.78;;
41167;SDS011;26906;45.658;9.272;2023-02-11T21:06:30;49.60;;;31.50;;
41167;SDS011;26906;45.658;9.272;2023-02-11T21:08:58;61.92;;;32.92;;
41167;SDS011;26906;45.658;9.272;2023-02-11T21:11:23;55.97;;;32.72;;
41167;SDS011;26906;45.658;9.272;2023-02-11T21:13:49;53.45;;;30.27;;
41167;SDS011;26906;45.658;9.272;2023-02-11T21:16:16;49.60;;;29.67;;
41167;SDS011;26906;45.658;9.272;2023-02-11T21:18:52;89.47;;;48.17;;
41167;SDS011;26906;45.658;9.272;2023-02-11T21:21:19;92.25;;;51.80;;
41167;SDS011;26906;45.658;9.272;2023-02-11T21:23:45;51.22;;;32.92;;
41167;SDS011;26906;45.658;9.272;2023-02-11T21:26:12;50.75;;;32.05;;
41167;SDS011;26906;45.658;9.272;2023-02-11T21:28:58;52.53;;;31.05;;
41167;SDS011;26906;45.658;9.272;2023-02-11T21:31:25;54.20;;;30.48;;
41167;SDS011;26906;45.658;9.272;2023-02-11T21:33:54;50.55;;;29.77;;
